sensor_id;sensor_type;location;lat;lon;timestamp;P1;durP1;ratioP1;P2;durP2;ratioP2
10319;SDS011;5205;52.168;5.420;2024-02-15T00:00:15;15.38;;;5.93;;
10319;SDS011;5205;52.168;5.420;2024-02-15T00:02:42;9.88;;;4.90;;
10319;SDS011;5205;52.168;5.420;2024-02-15T00:05:10;12.25;;;5.15;;
10319;SDS011;5205;52.168;5.420;2024-02-15T00:07:38;13.02;;;5.47;;
10319;SDS011;5205;52.168;5.420;2024-02-15T00:10:07;13.00;;;5.43;;
10319;SDS011;5205;52.168;5.420;2024-02-15T00:12:34;19.80;;;6.35;;
10319;SDS011;5205;52.168;5.420;2024-02-15T00:15:02;13.65;;;5.82;;
10319;SDS011;5205;52.168;5.420;2024-02-15T00:17:29;18.33;;;6.25;;
10319;SDS011;5205;52.168;5.420;2024-02-15T00:19:58;15.93;;;5.10;;
10319;SDS011;5205;52.168;5.420;2024-02-15T00:22:26;14.80;;;5.68;;
10319;SDS011;5205;52.168;5.420;2024-02-15T00:24:53;11.80;;;5.57;;
10319;SDS011;5205;52.168;5.420;2024-02-15T00:27:21;10.88;;;5.53;;
10319;SDS011;5205;52.168;5.420;2024-02-15T00:29:48;15.45;;;5.63;;
10319;SDS011;5205;52.168;5.420;2024-02-15T00:32:17;20.17;;;5.97;;
10319;SDS011;5205;52.168;5.420;2024-02-15T00:34:44;13.07;;;5.32;;
10319;SDS011;5205;52.168;5.420;2024-02-15T00:37:11;11.35;;;5.50;;
10319;SDS011;5205;52.168;5.420;2024-02-15T00:39:38;12.10;;;5.97;;
10319;SDS011;5205;52.168;5.420;2024-02-15T00:42:06;14.10;;;5.90;;
10319;SDS011;5205;52.168;5.420;2024-02-15T00:44:35;16.73;;;7.10;;
10319;SDS011;5205;52.168;5.420;2024-02-15T00:47:02;11.43;;;6.50;;
10319;SDS011;5205;52.168;5.420;2024-02-15T00:49:30;15.40;;;6.13;;
10319;SDS011;5205;52.168;5.420;2024-02-15T00:51:57;17.10;;;6.30;;
10319;SDS011;5205;52.168;5.420;2024-02-15T00:54:25;9.50;;;5.38;;
10319;SDS011;5205;52.168;5.420;2024-02-15T00:56:52;12.07;;;5.00;;
10319;SDS011;5205;52.168;5.420;2024-02-15T00:59:19;12.80;;;5.95;;
10319;SDS011;5205;52.168;5.420;2024-02-15T01:01:48;13.40;;;5.55;;
10319;SDS011;5205;52.168;5.420;2024-02-15T01:04:15;9.68;;;5.13;;
10319;SDS011;5205;52.168;5.420;2024-02-15T01:06:42;12.93;;;6.20;;
10319;SDS011;5205;52.168;5.420;2024-02-15T01:09:10;12.70;;;5.22;;
10319;SDS011;5205;52.168;5.420;2024-02-15T01:11:38;13.55;;;6.07;;
10319;SDS011;5205;52.168;5.420;2024-02-15T01:14:05;11.02;;;5.32;;
10319;SDS011;5205;52.168;5.420;2024-02-15T01:16:34;15.07;;;5.40;;
10319;SDS011;5205;52.168;5.420;2024-02-15T01:19:03;14.02;;;5.18;;
10319;SDS011;5205;52.168;5.420;2024-02-15T01:21:30;13.82;;;5.60;;
10319;SDS011;5205;52.168;5.420;2024-02-15T01:23:58;12.27;;;5.38;;
10319;SDS011;5205;52.168;5.420;2024-02-15T01:26:25;16.88;;;5.80;;
10319;SDS011;5205;52.168;5.420;2024-02-15T01:28:52;7.80;;;4.90;;
10319;SDS011;5205;52.168;5.420;2024-02-15T01:31:20;13.95;;;5.35;;
10319;SDS011;5205;52.168;5.420;2024-02-15T01:33:47;12.30;;;6.22;;
10319;SDS011;5205;52.168;5.420;2024-02-15T01:36:16;11.82;;;6.35;;
10319;SDS011;5205;52.168;5.420;2024-02-15T01:38:43;16.67;;;7.03;;
10319;SDS011;5205;52.168;5.420;2024-02-15T01:41:11;17.20;;;7.25;;
10319;SDS011;5205;52.168;5.420;2024-02-15T01:43:39;16.55;;;7.57;;
10319;SDS011;5205;52.168;5.420;2024-02-15T01:46:09;23.02;;;8.57;;
10319;SDS011;5205;52.168;5.420;2024-02-15T01:48:37;14.25;;;7.90;;
10319;SDS011;5205;52.168;5.420;2024-02-15T01:51:06;19.45;;;8.55;;
10319;SDS011;5205;52.168;5.420;2024-02-15T01:53:35;17.42;;;9.85;;
10319;SDS011;5205;52.168;5.420;2024-02-15T01:56:03;18.27;;;9.23;;
10319;SDS011;5205;52.168;5.420;2024-02-15T01:58:30;19.70;;;10.27;;
10319;SDS011;5205;52.168;5.420;2024-02-15T02:00:57;21.92;;;9.43;;
10319;SDS011;5205;52.168;5.420;2024-02-15T02:03:24;23.25;;;10.48;;
10319;SDS011;5205;52.168;5.420;2024-02-15T02:05:51;19.15;;;10.30;;
10319;SDS011;5205;52.168;5.420;2024-02-15T02:08:19;21.30;;;9.68;;
10319;SDS011;5205;52.168;5.420;2024-02-15T02:10:49;22.33;;;10.35;;
10319;SDS011;5205;52.168;5.420;2024-02-15T02:13:17;19.13;;;10.35;;
10319;SDS011;5205;52.168;5.420;2024-02-15T02:15:44;20.10;;;9.68;;
10319;SDS011;5205;52.168;5.420;2024-02-15T02:18:11;18.55;;;9.82;;
10319;SDS011;5205;52.168;5.420;2024-02-15T02:20:38;18.73;;;9.63;;
10319;SDS011;5205;52.168;5.420;2024-02-15T02:23:07;18.98;;;9.70;;
10319;SDS011;5205;52.168;5.420;2024-02-15T02:25:36;25.63;;;10.15;;
10319;SDS011;5205;52.168;5.420;2024-02-15T02:28:03;19.00;;;9.75;;
10319;SDS011;5205;52.168;5.420;2024-02-15T02:30:31;19.75;;;9.60;;
10319;SDS011;5205;52.168;5.420;2024-02-15T02:32:58;24.85;;;9.55;;
10319;SDS011;5205;52.168;5.420;2024-02-15T02:35:26;19.92;;;9.85;;
10319;SDS011;5205;52.168;5.420;2024-02-15T02:37:55;17.60;;;9.50;;
10319;SDS011;5205;52.168;5.420;2024-02-15T02:40:22;18.67;;;9.10;;
10319;SDS011;5205;52.168;5.420;2024-02-15T02:42:51;18.10;;;8.27;;
10319;SDS011;5205;52.168;5.420;2024-02-15T02:45:18;24.70;;;9.73;;
10319;SDS011;5205;52.168;5.420;2024-02-15T02:47:47;16.60;;;8.20;;
10319;SDS011;5205;52.168;5.420;2024-02-15T02:50:14;15.65;;;8.52;;
10319;SDS011;5205;52.168;5.420;2024-02-15T02:52:42;18.35;;;8.55;;
10319;SDS011;5205;52.168;5.420;2024-02-15T02:55:09;18.05;;;8.88;;
10319;SDS011;5205;52.168;5.420;2024-02-15T02:57:37;15.65;;;8.77;;
10319;SDS011;5205;52.168;5.420;2024-02-15T03:00:06;17.88;;;9.10;;
10319;SDS011;5205;52.168;5.420;2024-02-15T03:02:35;17.30;;;9.05;;
10319;SDS011;5205;52.168;5.420;2024-02-15T03:05:03;20.15;;;9.88;;
10319;SDS011;5205;52.168;5.420;2024-02-15T03:07:32;25.45;;;9.40;;
10319;SDS011;5205;52.168;5.420;2024-02-15T03:10:00;17.88;;;8.27;;
10319;SDS011;5205;52.168;5.420;2024-02-15T03:12:33;19.38;;;7.80;;
10319;SDS011;5205;52.168;5.420;2024-02-15T03:15:01;15.65;;;7.90;;
10319;SDS011;5205;52.168;5.420;2024-02-15T03:17:29;16.00;;;7.95;;
10319;SDS011;5205;52.168;5.420;2024-02-15T03:19:57;18.55;;;7.45;;
10319;SDS011;5205;52.168;5.420;2024-02-15T03:22:25;20.92;;;8.85;;
10319;SDS011;5205;52.168;5.420;2024-02-15T03:24:54;21.65;;;7.50;;
10319;SDS011;5205;52.168;5.420;2024-02-15T03:27:21;17.20;;;7.22;;
10319;SDS011;5205;52.168;5.420;2024-02-15T03:29:48;23.00;;;7.20;;
10319;SDS011;5205;52.168;5.420;2024-02-15T03:32:17;16.17;;;7.15;;
10319;SDS011;5205;52.168;5.420;2024-02-15T03:34:45;13.35;;;7.63;;
10319;SDS011;5205;52.168;5.420;2024-02-15T03:37:12;20.08;;;7.53;;
10319;SDS011;5205;52.168;5.420;2024-02-15T03:39:39;17.25;;;6.20;;
10319;SDS011;5205;52.168;5.420;2024-02-15T03:42:08;18.67;;;7.10;;
10319;SDS011;5205;52.168;5.420;2024-02-15T03:44:35;13.40;;;5.97;;
10319;SDS011;5205;52.168;5.420;2024-02-15T03:47:03;20.67;;;7.82;;
10319;SDS011;5205;52.168;5.420;2024-02-15T03:49:31;17.52;;;6.78;;
10319;SDS011;5205;52.168;5.420;2024-02-15T03:51:59;12.95;;;5.78;;
10319;SDS011;5205;52.168;5.420;2024-02-15T03:54:26;15.93;;;6.13;;
10319;SDS011;5205;52.168;5.420;2024-02-15T03:56:54;17.65;;;6.45;;
10319;SDS011;5205;52.168;5.420;2024-02-15T03:59:22;14.73;;;6.22;;
10319;SDS011;5205;52.168;5.420;2024-02-15T04:01:51;13.10;;;6.70;;
10319;SDS011;5205;52.168;5.420;2024-02-15T04:04:19;11.75;;;5.68;;
10319;SDS011;5205;52.168;5.420;2024-02-15T04:06:47;18.58;;;5.88;;
10319;SDS011;5205;52.168;5.420;2024-02-15T04:09:15;13.90;;;5.82;;
10319;SDS011;5205;52.168;5.420;2024-02-15T04:11:43;14.25;;;6.22;;
10319;SDS011;5205;52.168;5.420;2024-02-15T04:14:12;15.25;;;6.65;;
10319;SDS011;5205;52.168;5.420;2024-02-15T04:16:39;17.98;;;6.43;;
10319;SDS011;5205;52.168;5.420;2024-02-15T04:19:06;17.42;;;7.57;;
10319;SDS011;5205;52.168;5.420;2024-02-15T04:21:33;15.95;;;5.05;;
10319;SDS011;5205;52.168;5.420;2024-02-15T04:24:00;12.07;;;5.95;;
10319;SDS011;5205;52.168;5.420;2024-02-15T04:26:29;12.65;;;5.68;;
10319;SDS011;5205;52.168;5.420;2024-02-15T04:28:57;13.70;;;6.28;;
10319;SDS011;5205;52.168;5.420;2024-02-15T04:31:24;18.67;;;6.25;;
10319;SDS011;5205;52.168;5.420;2024-02-15T04:33:52;19.52;;;6.30;;
10319;SDS011;5205;52.168;5.420;2024-02-15T04:36:19;14.60;;;5.95;;
10319;SDS011;5205;52.168;5.420;2024-02-15T04:38:49;20.05;;;6.95;;
10319;SDS011;5205;52.168;5.420;2024-02-15T04:41:16;14.95;;;6.22;;
10319;SDS011;5205;52.168;5.420;2024-02-15T04:43:49;13.63;;;5.57;;
10319;SDS011;5205;52.168;5.420;2024-02-15T04:46:16;15.98;;;5.38;;
10319;SDS011;5205;52.168;5.420;2024-02-15T04:48:46;13.93;;;6.25;;
10319;SDS011;5205;52.168;5.420;2024-02-15T04:51:14;10.30;;;4.97;;
10319;SDS011;5205;52.168;5.420;2024-02-15T04:53:41;18.40;;;6.32;;
10319;SDS011;5205;52.168;5.420;2024-02-15T04:56:08;21.90;;;5.93;;
10319;SDS011;5205;52.168;5.420;2024-02-15T04:58:38;17.58;;;6.05;;
10319;SDS011;5205;52.168;5.420;2024-02-15T05:01:12;11.85;;;5.25;;
10319;SDS011;5205;52.168;5.420;2024-02-15T05:03:39;18.30;;;6.20;;
10319;SDS011;5205;52.168;5.420;2024-02-15T05:06:06;14.30;;;5.82;;
10319;SDS011;5205;52.168;5.420;2024-02-15T05:08:34;17.83;;;6.03;;
10319;SDS011;5205;52.168;5.420;2024-02-15T05:11:07;10.35;;;5.90;;
10319;SDS011;5205;52.168;5.420;2024-02-15T05:13:38;11.95;;;6.07;;
10319;SDS011;5205;52.168;5.420;2024-02-15T05:16:05;15.65;;;6.55;;
10319;SDS011;5205;52.168;5.420;2024-02-15T05:18:34;16.88;;;6.28;;
10319;SDS011;5205;52.168;5.420;2024-02-15T05:21:01;17.67;;;6.43;;
10319;SDS011;5205;52.168;5.420;2024-02-15T05:23:28;15.13;;;6.47;;
10319;SDS011;5205;52.168;5.420;2024-02-15T05:25:56;18.52;;;7.18;;
10319;SDS011;5205;52.168;5.420;2024-02-15T05:28:23;14.30;;;5.75;;
10319;SDS011;5205;52.168;5.420;2024-02-15T05:31:07;17.52;;;6.85;;
10319;SDS011;5205;52.168;5.420;2024-02-15T05:33:36;15.85;;;6.47;;
10319;SDS011;5205;52.168;5.420;2024-02-15T05:36:05;20.42;;;6.72;;
10319;SDS011;5205;52.168;5.420;2024-02-15T05:38:33;12.60;;;6.03;;
10319;SDS011;5205;52.168;5.420;2024-02-15T05:41:01;12.80;;;7.00;;
10319;SDS011;5205;52.168;5.420;2024-02-15T05:43:28;15.05;;;6.13;;
10319;SDS011;5205;52.168;5.420;2024-02-15T05:45:55;14.85;;;6.75;;
10319;SDS011;5205;52.168;5.420;2024-02-15T05:48:23;14.10;;;6.40;;
10319;SDS011;5205;52.168;5.420;2024-02-15T05:50:51;11.43;;;6.40;;
10319;SDS011;5205;52.168;5.420;2024-02-15T05:53:19;13.02;;;5.97;;
10319;SDS011;5205;52.168;5.420;2024-02-15T05:55:46;15.32;;;6.43;;
10319;SDS011;5205;52.168;5.420;2024-02-15T05:58:14;11.85;;;6.13;;
10319;SDS011;5205;52.168;5.420;2024-02-15T06:00:42;14.32;;;6.57;;
10319;SDS011;5205;52.168;5.420;2024-02-15T06:03:09;14.93;;;6.15;;
10319;SDS011;5205;52.168;5.420;2024-02-15T06:05:37;15.23;;;5.93;;
10319;SDS011;5205;52.168;5.420;2024-02-15T06:08:06;13.20;;;6.65;;
10319;SDS011;5205;52.168;5.420;2024-02-15T06:10:33;13.80;;;6.43;;
10319;SDS011;5205;52.168;5.420;2024-02-15T06:13:00;12.90;;;6.05;;
10319;SDS011;5205;52.168;5.420;2024-02-15T06:15:27;14.90;;;6.22;;
10319;SDS011;5205;52.168;5.420;2024-02-15T06:17:54;19.73;;;7.13;;
10319;SDS011;5205;52.168;5.420;2024-02-15T06:20:22;9.98;;;5.57;;
10319;SDS011;5205;52.168;5.420;2024-02-15T06:22:50;14.55;;;6.05;;
10319;SDS011;5205;52.168;5.420;2024-02-15T06:25:19;17.08;;;6.32;;
10319;SDS011;5205;52.168;5.420;2024-02-15T06:27:46;13.60;;;6.55;;
10319;SDS011;5205;52.168;5.420;2024-02-15T06:30:16;9.88;;;6.20;;
10319;SDS011;5205;52.168;5.420;2024-02-15T06:36:03;13.63;;;6.00;;
10319;SDS011;5205;52.168;5.420;2024-02-15T06:38:48;11.27;;;6.50;;
10319;SDS011;5205;52.168;5.420;2024-02-15T06:44:01;15.95;;;6.65;;
10319;SDS011;5205;52.168;5.420;2024-02-15T06:46:28;14.15;;;7.20;;
10319;SDS011;5205;52.168;5.420;2024-02-15T06:48:55;16.20;;;7.63;;
10319;SDS011;5205;52.168;5.420;2024-02-15T06:51:23;15.68;;;7.25;;
10319;SDS011;5205;52.168;5.420;2024-02-15T06:53:50;13.05;;;7.10;;
10319;SDS011;5205;52.168;5.420;2024-02-15T06:56:20;11.90;;;7.10;;
10319;SDS011;5205;52.168;5.420;2024-02-15T06:58:47;13.15;;;7.68;;
10319;SDS011;5205;52.168;5.420;2024-02-15T07:01:16;19.00;;;7.22;;
10319;SDS011;5205;52.168;5.420;2024-02-15T07:03:43;12.98;;;7.60;;
10319;SDS011;5205;52.168;5.420;2024-02-15T07:06:10;14.13;;;7.32;;
10319;SDS011;5205;52.168;5.420;2024-02-15T07:08:38;11.65;;;7.43;;
10319;SDS011;5205;52.168;5.420;2024-02-15T07:11:06;13.30;;;7.47;;
10319;SDS011;5205;52.168;5.420;2024-02-15T07:13:34;14.82;;;7.53;;
10319;SDS011;5205;52.168;5.420;2024-02-15T07:16:02;13.98;;;7.45;;
10319;SDS011;5205;52.168;5.420;2024-02-15T07:18:30;13.75;;;7.38;;
10319;SDS011;5205;52.168;5.420;2024-02-15T07:20:58;13.30;;;7.32;;
10319;SDS011;5205;52.168;5.420;2024-02-15T07:23:26;8.77;;;6.50;;
10319;SDS011;5205;52.168;5.420;2024-02-15T07:26:03;13.27;;;6.90;;
10319;SDS011;5205;52.168;5.420;2024-02-15T07:28:30;12.52;;;6.85;;
10319;SDS011;5205;52.168;5.420;2024-02-15T07:30:57;8.02;;;5.63;;
10319;SDS011;5205;52.168;5.420;2024-02-15T07:33:27;12.35;;;7.05;;
10319;SDS011;5205;52.168;5.420;2024-02-15T07:35:56;10.55;;;6.53;;
10319;SDS011;5205;52.168;5.420;2024-02-15T07:38:23;10.27;;;6.25;;
10319;SDS011;5205;52.168;5.420;2024-02-15T07:40:50;7.85;;;5.72;;
10319;SDS011;5205;52.168;5.420;2024-02-15T07:43:17;11.65;;;6.50;;
10319;SDS011;5205;52.168;5.420;2024-02-15T07:45:44;9.02;;;5.53;;
10319;SDS011;5205;52.168;5.420;2024-02-15T07:48:14;8.63;;;5.95;;
10319;SDS011;5205;52.168;5.420;2024-02-15T07:50:41;8.15;;;5.35;;
10319;SDS011;5205;52.168;5.420;2024-02-15T07:53:11;10.20;;;5.25;;
10319;SDS011;5205;52.168;5.420;2024-02-15T07:55:38;9.65;;;4.95;;
10319;SDS011;5205;52.168;5.420;2024-02-15T07:58:06;6.35;;;4.25;;
10319;SDS011;5205;52.168;5.420;2024-02-15T08:00:33;9.38;;;4.80;;
10319;SDS011;5205;52.168;5.420;2024-02-15T08:03:00;7.13;;;3.42;;
10319;SDS011;5205;52.168;5.420;2024-02-15T08:05:28;7.28;;;3.78;;
10319;SDS011;5205;52.168;5.420;2024-02-15T08:07:55;6.50;;;3.90;;
10319;SDS011;5205;52.168;5.420;2024-02-15T08:10:24;7.07;;;4.07;;
10319;SDS011;5205;52.168;5.420;2024-02-15T08:12:53;8.90;;;4.38;;
10319;SDS011;5205;52.168;5.420;2024-02-15T08:15:23;11.23;;;4.57;;
10319;SDS011;5205;52.168;5.420;2024-02-15T08:17:52;9.55;;;4.75;;
10319;SDS011;5205;52.168;5.420;2024-02-15T08:20:20;9.73;;;3.63;;
10319;SDS011;5205;52.168;5.420;2024-02-15T08:22:47;5.72;;;3.65;;
10319;SDS011;5205;52.168;5.420;2024-02-15T08:25:14;7.97;;;3.83;;
10319;SDS011;5205;52.168;5.420;2024-02-15T08:27:46;10.80;;;3.75;;
10319;SDS011;5205;52.168;5.420;2024-02-15T08:30:15;4.75;;;2.92;;
10319;SDS011;5205;52.168;5.420;2024-02-15T08:32:43;7.70;;;3.33;;
10319;SDS011;5205;52.168;5.420;2024-02-15T08:35:12;5.20;;;3.05;;
10319;SDS011;5205;52.168;5.420;2024-02-15T08:37:40;4.82;;;2.90;;
10319;SDS011;5205;52.168;5.420;2024-02-15T08:40:09;5.25;;;2.60;;
10319;SDS011;5205;52.168;5.420;2024-02-15T08:42:38;9.02;;;3.53;;
10319;SDS011;5205;52.168;5.420;2024-02-15T08:45:07;6.88;;;3.40;;
10319;SDS011;5205;52.168;5.420;2024-02-15T08:47:35;4.68;;;2.60;;
10319;SDS011;5205;52.168;5.420;2024-02-15T08:50:04;4.45;;;2.83;;
10319;SDS011;5205;52.168;5.420;2024-02-15T08:52:31;6.15;;;2.40;;
10319;SDS011;5205;52.168;5.420;2024-02-15T08:54:59;5.50;;;2.65;;
10319;SDS011;5205;52.168;5.420;2024-02-15T08:57:26;7.00;;;2.97;;
10319;SDS011;5205;52.168;5.420;2024-02-15T08:59:53;7.25;;;2.63;;
10319;SDS011;5205;52.168;5.420;2024-02-15T09:02:21;3.45;;;2.13;;
10319;SDS011;5205;52.168;5.420;2024-02-15T09:04:48;4.20;;;2.40;;
10319;SDS011;5205;52.168;5.420;2024-02-15T09:07:15;6.65;;;2.03;;
10319;SDS011;5205;52.168;5.420;2024-02-15T09:09:43;5.25;;;2.00;;
10319;SDS011;5205;52.168;5.420;2024-02-15T09:12:10;3.30;;;1.95;;
10319;SDS011;5205;52.168;5.420;2024-02-15T09:14:37;4.13;;;1.92;;
10319;SDS011;5205;52.168;5.420;2024-02-15T09:17:04;2.72;;;1.83;;
10319;SDS011;5205;52.168;5.420;2024-02-15T09:19:34;3.55;;;2.38;;
10319;SDS011;5205;52.168;5.420;2024-02-15T09:22:01;3.50;;;1.90;;
10319;SDS011;5205;52.168;5.420;2024-02-15T09:24:29;5.05;;;1.92;;
10319;SDS011;5205;52.168;5.420;2024-02-15T09:26:58;3.08;;;1.80;;
10319;SDS011;5205;52.168;5.420;2024-02-15T09:29:26;6.75;;;2.15;;
10319;SDS011;5205;52.168;5.420;2024-02-15T09:31:54;4.70;;;2.03;;
10319;SDS011;5205;52.168;5.420;2024-02-15T09:34:21;5.07;;;1.95;;
10319;SDS011;5205;52.168;5.420;2024-02-15T09:36:50;4.15;;;2.00;;
10319;SDS011;5205;52.168;5.420;2024-02-15T09:39:17;5.35;;;2.08;;
10319;SDS011;5205;52.168;5.420;2024-02-15T09:41:44;5.20;;;2.25;;
10319;SDS011;5205;52.168;5.420;2024-02-15T09:44:11;9.13;;;2.35;;
10319;SDS011;5205;52.168;5.420;2024-02-15T09:46:42;7.50;;;2.75;;
10319;SDS011;5205;52.168;5.420;2024-02-15T09:49:11;5.15;;;2.92;;
10319;SDS011;5205;52.168;5.420;2024-02-15T09:51:38;6.10;;;2.40;;
10319;SDS011;5205;52.168;5.420;2024-02-15T09:54:09;4.63;;;2.42;;
10319;SDS011;5205;52.168;5.420;2024-02-15T09:56:38;6.35;;;2.75;;
10319;SDS011;5205;52.168;5.420;2024-02-15T09:59:06;7.60;;;2.70;;
10319;SDS011;5205;52.168;5.420;2024-02-15T10:01:34;6.50;;;2.60;;
10319;SDS011;5205;52.168;5.420;2024-02-15T10:04:01;6.70;;;2.83;;
10319;SDS011;5205;52.168;5.420;2024-02-15T10:06:31;3.92;;;2.75;;
10319;SDS011;5205;52.168;5.420;2024-02-15T10:11:44;6.38;;;2.63;;
10319;SDS011;5205;52.168;5.420;2024-02-15T10:14:21;7.60;;;2.47;;
10319;SDS011;5205;52.168;5.420;2024-02-15T10:16:48;7.63;;;2.40;;
10319;SDS011;5205;52.168;5.420;2024-02-15T10:19:15;7.25;;;3.20;;
10319;SDS011;5205;52.168;5.420;2024-02-15T10:21:43;6.63;;;2.70;;
10319;SDS011;5205;52.168;5.420;2024-02-15T10:24:11;8.98;;;3.20;;
10319;SDS011;5205;52.168;5.420;2024-02-15T10:26:38;5.43;;;2.63;;
10319;SDS011;5205;52.168;5.420;2024-02-15T10:29:06;6.90;;;2.45;;
10319;SDS011;5205;52.168;5.420;2024-02-15T10:31:36;8.38;;;2.97;;
10319;SDS011;5205;52.168;5.420;2024-02-15T10:34:03;7.57;;;2.40;;
10319;SDS011;5205;52.168;5.420;2024-02-15T10:36:30;6.45;;;3.88;;
10319;SDS011;5205;52.168;5.420;2024-02-15T10:39:11;6.20;;;3.22;;
10319;SDS011;5205;52.168;5.420;2024-02-15T10:41:43;7.43;;;2.92;;
10319;SDS011;5205;52.168;5.420;2024-02-15T10:44:13;7.50;;;3.30;;
10319;SDS011;5205;52.168;5.420;2024-02-15T10:46:42;5.38;;;3.22;;
10319;SDS011;5205;52.168;5.420;2024-02-15T10:49:10;6.90;;;2.95;;
10319;SDS011;5205;52.168;5.420;2024-02-15T10:51:38;10.02;;;3.15;;
10319;SDS011;5205;52.168;5.420;2024-02-15T10:54:07;5.97;;;2.53;;
10319;SDS011;5205;52.168;5.420;2024-02-15T10:56:37;11.55;;;3.05;;
10319;SDS011;5205;52.168;5.420;2024-02-15T10:59:10;5.13;;;2.80;;
10319;SDS011;5205;52.168;5.420;2024-02-15T11:01:43;4.80;;;2.67;;
10319;SDS011;5205;52.168;5.420;2024-02-15T11:04:12;8.23;;;3.00;;
10319;SDS011;5205;52.168;5.420;2024-02-15T11:06:42;7.03;;;2.60;;
10319;SDS011;5205;52.168;5.420;2024-02-15T11:09:09;13.23;;;3.38;;
10319;SDS011;5205;52.168;5.420;2024-02-15T11:11:39;5.85;;;3.15;;
10319;SDS011;5205;52.168;5.420;2024-02-15T11:16:53;9.23;;;4.00;;
10319;SDS011;5205;52.168;5.420;2024-02-15T11:22:11;7.90;;;3.60;;
10319;SDS011;5205;52.168;5.420;2024-02-15T11:24:45;7.55;;;3.30;;
10319;SDS011;5205;52.168;5.420;2024-02-15T11:27:12;9.15;;;2.92;;
10319;SDS011;5205;52.168;5.420;2024-02-15T11:29:51;8.32;;;3.20;;
10319;SDS011;5205;52.168;5.420;2024-02-15T11:32:37;7.47;;;3.65;;
10319;SDS011;5205;52.168;5.420;2024-02-15T11:35:10;10.80;;;4.28;;
10319;SDS011;5205;52.168;5.420;2024-02-15T11:37:51;8.93;;;3.92;;
10319;SDS011;5205;52.168;5.420;2024-02-15T11:40:19;11.10;;;4.25;;
10319;SDS011;5205;52.168;5.420;2024-02-15T11:42:48;16.10;;;3.75;;
10319;SDS011;5205;52.168;5.420;2024-02-15T11:45:15;14.57;;;4.15;;
10319;SDS011;5205;52.168;5.420;2024-02-15T11:47:46;8.07;;;4.15;;
10319;SDS011;5205;52.168;5.420;2024-02-15T11:50:15;8.45;;;4.05;;
10319;SDS011;5205;52.168;5.420;2024-02-15T11:52:42;8.45;;;3.85;;
10319;SDS011;5205;52.168;5.420;2024-02-15T11:55:10;9.52;;;4.43;;
10319;SDS011;5205;52.168;5.420;2024-02-15T11:57:38;8.73;;;5.07;;
10319;SDS011;5205;52.168;5.420;2024-02-15T12:00:20;7.75;;;4.28;;
10319;SDS011;5205;52.168;5.420;2024-02-15T12:03:03;7.53;;;4.10;;
10319;SDS011;5205;52.168;5.420;2024-02-15T12:05:49;10.93;;;4.63;;
10319;SDS011;5205;52.168;5.420;2024-02-15T12:08:34;10.77;;;4.97;;
10319;SDS011;5205;52.168;5.420;2024-02-15T12:11:19;13.35;;;4.72;;
10319;SDS011;5205;52.168;5.420;2024-02-15T12:14:18;11.48;;;4.57;;
10319;SDS011;5205;52.168;5.420;2024-02-15T12:19:49;11.25;;;4.20;;
10319;SDS011;5205;52.168;5.420;2024-02-15T12:22:17;8.90;;;4.20;;
10319;SDS011;5205;52.168;5.420;2024-02-15T12:24:45;6.45;;;4.00;;
10319;SDS011;5205;52.168;5.420;2024-02-15T12:27:19;10.80;;;4.50;;
10319;SDS011;5205;52.168;5.420;2024-02-15T12:29:52;8.95;;;4.40;;
10319;SDS011;5205;52.168;5.420;2024-02-15T12:32:19;10.25;;;3.85;;
10319;SDS011;5205;52.168;5.420;2024-02-15T12:34:46;7.68;;;4.07;;
10319;SDS011;5205;52.168;5.420;2024-02-15T12:37:16;6.82;;;4.10;;
10319;SDS011;5205;52.168;5.420;2024-02-15T12:39:45;8.82;;;3.80;;
10319;SDS011;5205;52.168;5.420;2024-02-15T12:42:12;10.93;;;4.18;;
10319;SDS011;5205;52.168;5.420;2024-02-15T12:44:42;7.85;;;3.50;;
10319;SDS011;5205;52.168;5.420;2024-02-15T12:47:17;7.20;;;3.20;;
10319;SDS011;5205;52.168;5.420;2024-02-15T12:49:44;8.35;;;3.80;;
10319;SDS011;5205;52.168;5.420;2024-02-15T12:55:07;6.65;;;3.53;;
10319;SDS011;5205;52.168;5.420;2024-02-15T12:57:34;6.57;;;3.70;;
10319;SDS011;5205;52.168;5.420;2024-02-15T13:00:02;6.40;;;3.42;;
10319;SDS011;5205;52.168;5.420;2024-02-15T13:02:36;6.65;;;3.75;;
10319;SDS011;5205;52.168;5.420;2024-02-15T13:05:03;6.13;;;3.55;;
10319;SDS011;5205;52.168;5.420;2024-02-15T13:07:33;10.15;;;3.92;;
10319;SDS011;5205;52.168;5.420;2024-02-15T13:10:00;6.05;;;3.05;;
10319;SDS011;5205;52.168;5.420;2024-02-15T13:12:30;5.35;;;2.60;;
10319;SDS011;5205;52.168;5.420;2024-02-15T13:14:59;5.88;;;2.75;;
10319;SDS011;5205;52.168;5.420;2024-02-15T13:17:28;8.52;;;2.97;;
10319;SDS011;5205;52.168;5.420;2024-02-15T13:19:56;6.07;;;3.10;;
10319;SDS011;5205;52.168;5.420;2024-02-15T13:22:29;5.53;;;2.58;;
10319;SDS011;5205;52.168;5.420;2024-02-15T13:24:57;10.57;;;2.70;;
10319;SDS011;5205;52.168;5.420;2024-02-15T13:27:24;6.63;;;3.00;;
10319;SDS011;5205;52.168;5.420;2024-02-15T13:29:52;5.40;;;2.78;;
10319;SDS011;5205;52.168;5.420;2024-02-15T13:32:20;5.30;;;2.15;;
10319;SDS011;5205;52.168;5.420;2024-02-15T13:34:47;5.97;;;2.05;;
10319;SDS011;5205;52.168;5.420;2024-02-15T13:37:17;3.97;;;2.22;;
10319;SDS011;5205;52.168;5.420;2024-02-15T13:39:45;7.60;;;2.42;;
10319;SDS011;5205;52.168;5.420;2024-02-15T13:42:12;6.35;;;2.20;;
10319;SDS011;5205;52.168;5.420;2024-02-15T13:44:39;7.43;;;2.20;;
10319;SDS011;5205;52.168;5.420;2024-02-15T13:47:08;7.25;;;2.40;;
10319;SDS011;5205;52.168;5.420;2024-02-15T13:49:36;9.30;;;2.45;;
10319;SDS011;5205;52.168;5.420;2024-02-15T13:52:04;8.85;;;2.38;;
10319;SDS011;5205;52.168;5.420;2024-02-15T13:54:31;5.20;;;2.10;;
10319;SDS011;5205;52.168;5.420;2024-02-15T13:56:59;6.20;;;2.33;;
10319;SDS011;5205;52.168;5.420;2024-02-15T13:59:26;5.22;;;2.13;;
10319;SDS011;5205;52.168;5.420;2024-02-15T14:01:54;8.50;;;2.70;;
10319;SDS011;5205;52.168;5.420;2024-02-15T14:04:22;5.30;;;2.67;;
10319;SDS011;5205;52.168;5.420;2024-02-15T14:06:49;7.97;;;1.90;;
10319;SDS011;5205;52.168;5.420;2024-02-15T14:09:16;5.00;;;2.13;;
10319;SDS011;5205;52.168;5.420;2024-02-15T14:11:44;5.80;;;2.20;;
10319;SDS011;5205;52.168;5.420;2024-02-15T14:14:11;6.57;;;2.40;;
10319;SDS011;5205;52.168;5.420;2024-02-15T14:16:38;5.03;;;1.85;;
10319;SDS011;5205;52.168;5.420;2024-02-15T14:19:05;4.35;;;2.15;;
10319;SDS011;5205;52.168;5.420;2024-02-15T14:21:35;6.40;;;2.15;;
10319;SDS011;5205;52.168;5.420;2024-02-15T14:24:05;5.65;;;2.17;;
10319;SDS011;5205;52.168;5.420;2024-02-15T14:26:33;8.60;;;2.53;;
10319;SDS011;5205;52.168;5.420;2024-02-15T14:29:01;4.95;;;2.20;;
10319;SDS011;5205;52.168;5.420;2024-02-15T14:31:28;7.10;;;2.40;;
10319;SDS011;5205;52.168;5.420;2024-02-15T14:34:13;7.40;;;2.83;;
10319;SDS011;5205;52.168;5.420;2024-02-15T14:36:44;6.32;;;2.60;;
10319;SDS011;5205;52.168;5.420;2024-02-15T14:39:12;8.05;;;2.55;;
10319;SDS011;5205;52.168;5.420;2024-02-15T14:41:39;7.00;;;2.47;;
10319;SDS011;5205;52.168;5.420;2024-02-15T14:44:08;4.20;;;2.28;;
10319;SDS011;5205;52.168;5.420;2024-02-15T14:46:35;9.60;;;2.80;;
10319;SDS011;5205;52.168;5.420;2024-02-15T14:49:02;7.03;;;2.67;;
10319;SDS011;5205;52.168;5.420;2024-02-15T14:51:29;5.75;;;2.72;;
10319;SDS011;5205;52.168;5.420;2024-02-15T14:53:59;5.32;;;2.22;;
10319;SDS011;5205;52.168;5.420;2024-02-15T14:56:26;9.75;;;3.63;;
10319;SDS011;5205;52.168;5.420;2024-02-15T14:58:53;5.63;;;2.33;;
10319;SDS011;5205;52.168;5.420;2024-02-15T15:01:20;4.15;;;2.30;;
10319;SDS011;5205;52.168;5.420;2024-02-15T15:03:52;7.72;;;2.53;;
10319;SDS011;5205;52.168;5.420;2024-02-15T15:06:20;5.90;;;3.08;;
10319;SDS011;5205;52.168;5.420;2024-02-15T15:09:06;7.55;;;2.53;;
10319;SDS011;5205;52.168;5.420;2024-02-15T15:11:51;7.05;;;2.80;;
10319;SDS011;5205;52.168;5.420;2024-02-15T15:14:36;12.43;;;2.60;;
10319;SDS011;5205;52.168;5.420;2024-02-15T15:17:03;7.85;;;2.97;;
10319;SDS011;5205;52.168;5.420;2024-02-15T15:19:30;5.15;;;2.80;;
10319;SDS011;5205;52.168;5.420;2024-02-15T15:21:57;8.38;;;2.38;;